Time;durP1;ratioP1;P1;durP2;ratioP2;P2;SDS_P1;SDS_P2;PMS_P1;PMS_P2;Temp;Humidity;BMP_temperature;BMP_pressure;BME280_temperature;BME280_humidity;BME280_pressure;Samples;Min_cycle;Max_cycle;Signal;HPM_P1;HPM_P2
2022/10/25 00:00:48;;;;;;;0.40;0.20;;;12.00;99.90;;;;;;5038231;28;20503;-75
2022/10/25 00:03:15;;;;;;;0.40;0.20;;;12.00;99.90;;;;;;5035947;28;20880;-74
2022/10/25 00:05:44;;;;;;;0.60;0.27;;;12.00;99.90;;;;;;5039091;28;20736;-74
2022/10/25 00:08:11;;;;;;;0.40;0.20;;;12.00;99.90;;;;;;5035406;28;20453;-75
2022/10/25 00:10:38;;;;;;;0.60;0.30;;;12.00;99.90;;;;;;5039054;28;20452;-74
2022/10/25 00:13:07;;;;;;;0.40;0.20;;;12.00;99.90;;;;;;5036433;28;20514;-74
2022/10/25 00:15:34;;;;;;;0.40;0.20;;;12.00;99.90;;;;;;5039354;28;20510;-74
2022/10/25 00:18:00;;;;;;;0.50;0.20;;;12.00;99.90;;;;;;5035222;28;20488;-75
2022/10/25 00:20:28;;;;;;;0.77;0.27;;;12.00;99.90;;;;;;5037547;28;20488;-75
2022/10/25 00:22:54;;;;;;;0.47;0.20;;;11.90;99.90;;;;;;5035434;28;20468;-74
2022/10/25 00:25:21;;;;;;;0.47;0.30;;;11.90;99.90;;;;;;5037645;28;20448;-75
2022/10/25 00:27:48;;;;;;;0.30;0.20;;;11.90;99.90;;;;;;5035303;28;20978;-74
2022/10/25 00:30:17;;;;;;;0.50;0.23;;;11.80;99.90;;;;;;5037925;28;20818;-74
2022/10/25 00:32:44;;;;;;;0.77;0.30;;;11.90;99.90;;;;;;5034895;28;20459;-74
2022/10/25 00:35:11;;;;;;;0.60;0.30;;;11.90;99.90;;;;;;5037900;28;20814;-75
2022/10/25 00:37:38;;;;;;;1.07;0.20;;;11.90;99.90;;;;;;5035267;28;20752;-74
2022/10/25 00:40:06;;;;;;;0.80;0.20;;;11.80;99.90;;;;;;5038354;28;20484;-75
2022/10/25 00:42:33;;;;;;;0.47;0.30;;;11.90;99.90;;;;;;5034727;28;20460;-74
2022/10/25 00:45:02;;;;;;;0.53;0.30;;;11.90;99.90;;;;;;5038197;28;20452;-74
2022/10/25 00:47:43;;;;;;;0.50;0.20;;;12.00;99.90;;;;;;5038265;28;20530;-74
2022/10/25 00:50:18;;;;;;;0.80;0.30;;;12.00;99.90;;;;;;5035049;28;20464;-75
2022/10/25 00:52:48;;;;;;;1.27;0.40;;;12.00;99.90;;;;;;5038271;28;20448;-74
2022/10/25 00:55:18;;;;;;;0.40;0.20;;;12.00;99.90;;;;;;5035489;28;20460;-74
2022/10/25 00:57:51;;;;;;;0.57;0.30;;;12.00;99.90;;;;;;5038144;28;20436;-75
2022/10/25 01:00:18;;;;;;;0.40;0.30;;;12.00;99.90;;;;;;5033169;28;20527;-74
2022/10/25 01:02:47;;;;;;;0.50;0.30;;;12.00;99.90;;;;;;5037087;28;20962;-75
2022/10/25 01:05:16;;;;;;;0.40;0.20;;;12.00;99.90;;;;;;5033441;28;20464;-74
2022/10/25 01:07:43;;;;;;;0.43;0.20;;;12.00;99.90;;;;;;5036716;28;20448;-74
2022/10/25 01:10:11;;;;;;;0.40;0.20;;;12.10;99.90;;;;;;5033926;28;20452;-75
2022/10/25 01:12:38;;;;;;;0.30;0.20;;;12.10;99.90;;;;;;5037691;28;20502;-74
2022/10/25 01:15:06;;;;;;;1.87;0.30;;;12.20;99.90;;;;;;5035683;28;20487;-74
2022/10/25 01:17:38;;;;;;;1.30;0.30;;;12.30;99.90;;;;;;5036855;28;20492;-75
2022/10/25 01:20:52;;;;;;;0.50;0.30;;;12.30;99.90;;;;;;5034343;28;20546;-74
2022/10/25 01:23:44;;;;;;;2.10;0.40;;;12.30;99.90;;;;;;4959433;28;20981;-74
2022/10/25 01:26:42;;;;;;;0.50;0.30;;;12.30;99.90;;;;;;5032371;28;20822;-74
2022/10/25 01:29:36;;;;;;;1.47;0.23;;;12.30;99.90;;;;;;5026535;28;20464;-74
2022/10/25 01:32:11;;;;;;;0.80;0.30;;;12.30;99.90;;;;;;5036527;28;20452;-74
2022/10/25 01:34:46;;;;;;;0.60;0.30;;;12.30;99.90;;;;;;5033616;28;20512;-74
2022/10/25 01:37:22;;;;;;;0.50;0.30;;;12.20;99.90;;;;;;5037077;28;20452;-74
2022/10/25 01:39:57;;;;;;;0.67;0.30;;;12.20;99.90;;;;;;5036504;28;20804;-74
2022/10/25 01:42:30;;;;;;;0.33;0.20;;;12.20;99.90;;;;;;5035616;28;20452;-74
2022/10/25 01:45:07;;;;;;;0.50;0.30;;;12.20;99.90;;;;;;5033331;28;20522;-74
2022/10/25 01:47:41;;;;;;;0.53;0.20;;;12.20;99.90;;;;;;5036555;28;20448;-74
2022/10/25 01:50:11;;;;;;;0.70;0.20;;;12.10;99.90;;;;;;5033955;28;20526;-74
2022/10/25 01:52:38;;;;;;;0.60;0.27;;;12.00;99.90;;;;;;5036000;28;20452;-74
2022/10/25 01:55:07;;;;;;;0.50;0.20;;;12.00;99.90;;;;;;5033005;28;20487;-74
2022/10/25 01:57:49;;;;;;;0.50;0.30;;;12.10;99.90;;;;;;5037091;28;20506;-74
2022/10/25 02:00:18;;;;;;;0.40;0.20;;;12.10;99.90;;;;;;5033805;28;20485;-74
2022/10/25 02:03:09;;;;;;;0.60;0.30;;;12.00;99.90;;;;;;5036657;28;20513;-74
2022/10/25 02:05:46;;;;;;;1.00;0.40;;;12.00;99.90;;;;;;5033797;28;20448;-74
2022/10/25 02:08:22;;;;;;;0.60;0.30;;;12.00;99.90;;;;;;5036872;28;20448;-75
2022/10/25 02:10:54;;;;;;;0.57;0.30;;;12.00;99.90;;;;;;5033172;28;20837;-74
2022/10/25 02:13:27;;;;;;;0.40;0.20;;;12.00;99.90;;;;;;5035937;28;20452;-74
2022/10/25 02:15:59;;;;;;;2.40;0.23;;;11.90;99.90;;;;;;5033602;28;20460;-74
2022/10/25 02:18:30;;;;;;;1.00;0.37;;;11.90;99.90;;;;;;5036034;28;20476;-74
2022/10/25 02:21:00;;;;;;;1.10;0.40;;;11.80;99.90;;;;;;5035399;28;20492;-73
2022/10/25 02:23:28;;;;;;;0.90;0.30;;;11.90;99.90;;;;;;5036613;28;20456;-75
2022/10/25 02:25:56;;;;;;;0.93;0.30;;;11.80;99.90;;;;;;5033292;28;20456;-74
2022/10/25 02:28:26;;;;;;;1.17;0.30;;;11.90;99.90;;;;;;5035740;28;20448;-74
2022/10/25 02:30:55;;;;;;;0.60;0.30;;;11.90;99.90;;;;;;5033369;28;20467;-74
2022/10/25 02:33:23;;;;;;;4.33;0.40;;;11.90;99.90;;;;;;5035986;28;20759;-74
2022/10/25 02:38:45;;;;;;;0.60;0.30;;;11.90;99.90;;;;;;5134588;27;20322;-75
2022/10/25 02:41:12;;;;;;;1.50;0.30;;;12.00;99.90;;;;;;5111966;28;20536;-74
2022/10/25 02:43:39;;;;;;;1.00;0.40;;;12.00;99.90;;;;;;5113820;28;20482;-74
2022/10/25 02:46:08;;;;;;;1.27;0.47;;;12.00;99.90;;;;;;5114310;28;20541;-75
2022/10/25 02:48:36;;;;;;;0.77;0.40;;;12.00;99.90;;;;;;5113195;28;20495;-74
2022/10/25 02:51:03;;;;;;;0.93;0.37;;;12.00;99.90;;;;;;5112335;28;21024;-75
2022/10/25 02:53:30;;;;;;;0.50;0.30;;;11.90;99.90;;;;;;5112144;28;20863;-75
2022/10/25 02:56:03;;;;;;;1.10;0.40;;;11.90;99.90;;;;;;5113732;28;20461;-74
2022/10/25 02:58:32;;;;;;;2.97;0.30;;;12.00;99.90;;;;;;5113436;28;20579;-74
2022/10/25 03:00:59;;;;;;;0.73;0.30;;;11.90;99.90;;;;;;5113668;28;20505;-75
2022/10/25 03:03:27;;;;;;;0.50;0.30;;;11.90;99.90;;;;;;5110419;28;20484;-74
2022/10/25 03:05:54;;;;;;;0.50;0.30;;;12.00;99.90;;;;;;5112394;28;20532;-75
2022/10/25 03:08:22;;;;;;;0.47;0.30;;;12.00;99.90;;;;;;5111445;28;20480;-75
2022/10/25 03:10:49;;;;;;;0.67;0.40;;;12.00;99.90;;;;;;5113658;28;20491;-74
2022/10/25 03:13:17;;;;;;;0.70;0.37;;;11.90;99.90;;;;;;5111524;28;20452;-74
2022/10/25 03:15:44;;;;;;;1.60;0.40;;;11.90;99.90;;;;;;5113513;28;20469;-74
2022/10/25 03:18:11;;;;;;;0.80;0.40;;;11.90;99.90;;;;;;5111692;28;20575;-74
2022/10/25 03:20:39;;;;;;;0.60;0.30;;;11.90;99.90;;;;;;5113098;28;20484;-74
2022/10/25 03:23:06;;;;;;;0.60;0.30;;;11.80;99.90;;;;;;5111900;28;20508;-75
2022/10/25 03:25:33;;;;;;;1.97;0.50;;;11.90;99.90;;;;;;5113562;28;20433;-74
2022/10/25 03:28:00;;;;;;;0.50;0.30;;;12.00;99.90;;;;;;5111988;28;20480;-75
2022/10/25 03:30:29;;;;;;;0.60;0.40;;;12.00;99.90;;;;;;5113401;28;20506;-73
2022/10/25 03:32:56;;;;;;;0.63;0.40;;;12.00;99.90;;;;;;5111746;28;20492;-73
2022/10/25 03:35:23;;;;;;;2.77;0.30;;;12.00;99.90;;;;;;5112397;28;20540;-72
2022/10/25 03:37:51;;;;;;;3.03;0.43;;;12.10;99.90;;;;;;5111002;28;20863;-72
2022/10/25 03:40:18;;;;;;;1.83;0.30;;;12.00;99.90;;;;;;5112745;28;20936;-72
2022/10/25 03:42:45;;;;;;;1.97;0.50;;;12.00;99.90;;;;;;5111637;28;20477;-72
2022/10/25 03:45:13;;;;;;;0.70;0.37;;;11.90;99.90;;;;;;5112112;28;20903;-72
2022/10/25 03:47:41;;;;;;;0.73;0.40;;;11.90;99.90;;;;;;5112089;28;20540;-73
2022/10/25 03:50:08;;;;;;;0.90;0.40;;;11.90;99.90;;;;;;5098619;28;20473;-72
2022/10/25 03:52:35;;;;;;;0.67;0.40;;;11.90;99.90;;;;;;5097983;28;20468;-72
2022/10/25 03:55:02;;;;;;;0.67;0.40;;;11.90;99.90;;;;;;5098130;28;20578;-72
2022/10/25 03:57:29;;;;;;;0.93;0.30;;;11.90;99.90;;;;;;5096895;28;20576;-71
2022/10/25 03:59:56;;;;;;;0.60;0.40;;;11.90;99.90;;;;;;5094845;28;20545;-72
2022/10/25 04:02:23;;;;;;;0.80;0.50;;;11.90;99.90;;;;;;5088266;28;20480;-72
2022/10/25 04:04:51;;;;;;;0.73;0.50;;;11.90;99.90;;;;;;5098674;28;20536;-72
2022/10/25 04:07:19;;;;;;;1.17;0.40;;;12.00;99.90;;;;;;5097603;28;20544;-74
2022/10/25 04:09:46;;;;;;;0.60;0.40;;;12.00;99.90;;;;;;5096334;28;20545;-73
2022/10/25 04:12:13;;;;;;;0.77;0.40;;;12.00;99.90;;;;;;5094724;28;20556;-74
2022/10/25 04:14:40;;;;;;;1.03;0.40;;;12.00;99.90;;;;;;5097302;28;20911;-73
2022/10/25 04:17:08;;;;;;;1.00;0.40;;;12.00;99.90;;;;;;5095538;28;20481;-73
2022/10/25 04:19:35;;;;;;;0.60;0.40;;;12.00;99.90;;;;;;5097214;28;20709;-73
2022/10/25 04:22:04;;;;;;;1.10;0.40;;;11.90;99.90;;;;;;5097020;28;20610;-72
2022/10/25 04:24:31;;;;;;;1.03;0.40;;;11.90;99.90;;;;;;5096962;28;20493;-73
2022/10/25 04:26:57;;;;;;;0.60;0.40;;;12.00;99.90;;;;;;5096632;28;20485;-73
2022/10/25 04:29:24;;;;;;;0.70;0.40;;;11.90;99.90;;;;;;5098555;28;20868;-72
2022/10/25 04:31:51;;;;;;;0.60;0.30;;;11.90;99.90;;;;;;5096937;28;20900;-73
2022/10/25 04:34:18;;;;;;;0.77;0.40;;;11.90;99.90;;;;;;5097784;28;20485;-72
2022/10/25 04:36:45;;;;;;;1.20;0.50;;;12.00;99.90;;;;;;5096101;28;20570;-73
2022/10/25 04:39:13;;;;;;;3.10;0.50;;;12.00;99.90;;;;;;5097014;28;20996;-72
2022/10/25 04:41:40;;;;;;;0.70;0.37;;;12.00;99.90;;;;;;5094150;28;20805;-71
2022/10/25 04:44:07;;;;;;;0.70;0.33;;;12.00;99.90;;;;;;5097239;28;20446;-70
2022/10/25 04:46:34;;;;;;;0.60;0.30;;;12.00;99.90;;;;;;5094338;28;20549;-72
2022/10/25 04:49:01;;;;;;;1.77;0.40;;;12.00;99.90;;;;;;5096781;28;20537;-72
2022/10/25 04:51:28;;;;;;;3.03;0.40;;;12.00;99.90;;;;;;5095978;28;20536;-72
2022/10/25 04:53:54;;;;;;;1.27;0.40;;;12.00;99.90;;;;;;5097248;28;20536;-72
2022/10/25 04:56:23;;;;;;;1.23;0.40;;;12.00;99.90;;;;;;5096907;28;20537;-72
2022/10/25 04:58:50;;;;;;;0.60;0.40;;;12.00;99.90;;;;;;5097252;28;20481;-72
2022/10/25 05:33:24;;;;;;;0.97;0.50;;;11.90;99.90;;;;;;5086382;27;21024;-73
2022/10/25 05:35:52;;;;;;;1.50;0.50;;;11.90;99.90;;;;;;5052374;28;20739;-73
2022/10/25 05:38:19;;;;;;;0.70;0.40;;;11.90;99.90;;;;;;5051963;28;20585;-71
2022/10/25 05:40:53;;;;;;;3.53;0.40;;;11.90;99.90;;;;;;5052707;28;20624;-73
2022/10/25 05:43:20;;;;;;;1.47;0.50;;;11.90;99.90;;;;;;5050464;28;20453;-73
2022/10/25 05:45:47;;;;;;;0.60;0.30;;;11.90;99.90;;;;;;5054837;28;20452;-73
2022/10/25 05:48:14;;;;;;;0.50;0.30;;;11.90;99.90;;;;;;5054187;28;20479;-73
2022/10/25 05:50:41;;;;;;;0.80;0.50;;;12.00;99.90;;;;;;5055521;28;20535;-73
2022/10/25 05:53:11;;;;;;;0.70;0.40;;;12.00;99.90;;;;;;5054636;28;20553;-73
2022/10/25 05:55:38;;;;;;;1.10;0.50;;;12.00;99.90;;;;;;5052552;28;20531;-70
2022/10/25 05:58:04;;;;;;;0.77;0.40;;;12.00;99.90;;;;;;5054345;28;20574;-72
2022/10/25 06:00:31;;;;;;;2.33;0.30;;;12.00;99.90;;;;;;5053854;28;20707;-73
2022/10/25 06:03:01;;;;;;;3.43;0.50;;;12.00;99.90;;;;;;5055799;28;20801;-73
2022/10/25 06:05:28;;;;;;;1.33;0.40;;;12.10;99.90;;;;;;5054148;28;20486;-73
2022/10/25 06:07:55;;;;;;;0.80;0.47;;;12.00;99.90;;;;;;5055172;28;20542;-73
2022/10/25 06:10:23;;;;;;;1.77;0.40;;;12.10;99.90;;;;;;5050635;28;20466;-73
2022/10/25 06:12:50;;;;;;;0.73;0.40;;;12.10;99.90;;;;;;5053423;28;20921;-71
2022/10/25 06:15:17;;;;;;;0.80;0.40;;;12.00;99.90;;;;;;5052092;28;20924;-72
2022/10/25 06:17:44;;;;;;;0.90;0.37;;;12.00;99.90;;;;;;5052577;28;20771;-73
2022/10/25 06:20:11;;;;;;;0.77;0.40;;;12.00;99.90;;;;;;5051347;28;20550;-74
2022/10/25 06:22:38;;;;;;;1.37;0.40;;;12.00;99.90;;;;;;5053669;28;20478;-73
2022/10/25 06:25:06;;;;;;;0.90;0.50;;;12.00;99.90;;;;;;5051391;28;20513;-73
2022/10/25 06:27:37;;;;;;;0.60;0.40;;;12.00;99.90;;;;;;5050395;28;20479;-73
2022/10/25 06:30:05;;;;;;;4.10;0.53;;;12.00;99.90;;;;;;5048462;28;20456;-73
2022/10/25 06:32:32;;;;;;;1.40;0.30;;;12.00;99.90;;;;;;5044128;28;20542;-73
2022/10/25 06:34:59;;;;;;;0.80;0.50;;;12.00;99.90;;;;;;5060709;28;20486;-72
2022/10/25 06:37:26;;;;;;;1.90;0.50;;;12.10;99.90;;;;;;5071426;28;20447;-72
2022/10/25 06:39:52;;;;;;;1.27;0.50;;;12.10;99.90;;;;;;5069859;28;20584;-72
2022/10/25 06:42:19;;;;;;;0.70;0.40;;;12.20;99.90;;;;;;5072990;28;20439;-72
2022/10/25 06:44:48;;;;;;;0.97;0.40;;;12.20;99.90;;;;;;5073007;28;20549;-71
2022/10/25 06:47:15;;;;;;;0.90;0.30;;;12.20;99.90;;;;;;5071519;28;20566;-72
2022/10/25 06:49:41;;;;;;;1.10;0.37;;;12.20;99.90;;;;;;5071182;28;20489;-72
2022/10/25 06:52:08;;;;;;;1.80;0.40;;;12.20;99.90;;;;;;5071958;28;20438;-72
2022/10/25 06:54:35;;;;;;;1.40;0.60;;;12.20;99.90;;;;;;5071919;28;20486;-72
2022/10/25 06:57:02;;;;;;;0.90;0.40;;;12.10;99.90;;;;;;5071551;28;20442;-72
2022/10/25 06:59:29;;;;;;;0.50;0.30;;;12.20;99.90;;;;;;5072520;28;20484;-72
2022/10/25 07:01:57;;;;;;;1.10;0.40;;;12.20;99.90;;;;;;5072082;28;20736;-72
2022/10/25 07:04:24;;;;;;;2.20;0.40;;;12.20;99.90;;;;;;5072264;28;20475;-72
2022/10/25 07:06:51;;;;;;;1.27;0.40;;;12.20;99.90;;;;;;5064571;28;20544;-72
2022/10/25 07:09:18;;;;;;;4.97;0.70;;;12.20;99.90;;;;;;5071899;28;20506;-72
2022/10/25 07:11:45;;;;;;;0.73;0.40;;;12.30;99.90;;;;;;5070217;28;20454;-72
2022/10/25 07:14:12;;;;;;;0.80;0.50;;;12.30;99.90;;;;;;5072686;28;20965;-72
2022/10/25 07:16:39;;;;;;;1.00;0.60;;;12.30;99.90;;;;;;5069449;28;20540;-72
2022/10/25 07:19:09;;;;;;;0.70;0.30;;;12.30;99.90;;;;;;5071911;28;20484;-72
2022/10/25 07:21:36;;;;;;;1.90;0.40;;;12.40;99.90;;;;;;5070615;28;20494;-72
2022/10/25 07:24:03;;;;;;;0.70;0.30;;;12.40;99.90;;;;;;5070686;28;20484;-71
2022/10/25 07:26:32;;;;;;;0.80;0.30;;;12.50;99.90;;;;;;5074170;28;20470;-72
2022/10/25 07:29:00;;;;;;;1.13;0.40;;;12.60;99.90;;;;;;5076456;28;20636;-73
2022/10/25 07:31:29;;;;;;;0.70;0.30;;;12.60;99.90;;;;;;5075328;28;20525;-73
2022/10/25 07:33:58;;;;;;;2.30;0.40;;;12.70;99.90;;;;;;5075657;28;20513;-72
2022/10/25 07:36:27;;;;;;;0.73;0.40;;;12.70;99.90;;;;;;5074886;28;21328;-72
2022/10/25 07:38:55;;;;;;;0.70;0.40;;;12.70;99.90;;;;;;5077177;28;20573;-73
2022/10/25 07:41:22;;;;;;;1.70;0.30;;;12.80;99.90;;;;;;5074169;28;20554;-73
2022/10/25 07:43:49;;;;;;;0.60;0.30;;;12.80;99.90;;;;;;5075521;28;20541;-73
2022/10/25 07:46:16;;;;;;;1.37;0.50;;;12.90;99.90;;;;;;5074313;28;20446;-73
2022/10/25 07:48:43;;;;;;;0.93;0.30;;;12.90;99.90;;;;;;5074911;28;20533;-73
2022/10/25 07:51:12;;;;;;;1.03;0.30;;;13.00;99.90;;;;;;5073880;28;20957;-73
2022/10/25 07:53:40;;;;;;;0.70;0.30;;;13.00;99.90;;;;;;5075652;28;20550;-72
2022/10/25 07:56:11;;;;;;;0.70;0.33;;;13.10;99.90;;;;;;5074122;28;20905;-72
2022/10/25 08:02:02;;;;;;;0.73;0.40;;;13.20;99.90;;;;;;5058943;28;20453;-72
2022/10/25 08:04:31;;;;;;;1.10;0.30;;;13.30;99.90;;;;;;5071463;28;20928;-72
2022/10/25 08:07:00;;;;;;;0.50;0.30;;;13.40;99.90;;;;;;5074453;28;20545;-72
2022/10/25 08:09:28;;;;;;;1.57;0.30;;;13.40;99.90;;;;;;5067479;28;20549;-72
2022/10/25 08:11:55;;;;;;;0.70;0.20;;;13.40;99.90;;;;;;5073736;28;20439;-72
2022/10/25 08:14:22;;;;;;;0.50;0.30;;;13.40;99.90;;;;;;5071277;28;20482;-72
2022/10/25 08:16:49;;;;;;;1.37;0.53;;;13.40;99.90;;;;;;5074642;28;20508;-73
2022/10/25 08:19:16;;;;;;;0.50;0.30;;;13.50;99.90;;;;;;5073358;28;20493;-73
2022/10/25 08:21:43;;;;;;;0.83;0.37;;;13.60;99.90;;;;;;5073474;28;20500;-72
2022/10/25 08:24:10;;;;;;;0.50;0.30;;;13.60;99.90;;;;;;5073429;28;20528;-72
2022/10/25 08:26:38;;;;;;;0.90;0.30;;;13.60;99.90;;;;;;5073926;28;20447;-72
2022/10/25 08:29:05;;;;;;;0.57;0.30;;;13.70;99.90;;;;;;5073951;28;20545;-72
2022/10/25 08:31:32;;;;;;;0.97;0.30;;;13.70;99.90;;;;;;5071719;28;20933;-71
2022/10/25 08:33:59;;;;;;;0.50;0.30;;;13.80;99.90;;;;;;5075194;28;20986;-71
2022/10/25 08:36:26;;;;;;;1.80;0.40;;;13.80;99.90;;;;;;5070427;28;20455;-71
2022/10/25 08:38:53;;;;;;;0.70;0.30;;;13.90;99.90;;;;;;5070414;28;20478;-72
2022/10/25 08:41:27;;;;;;;0.50;0.20;;;13.90;99.90;;;;;;5073239;28;20595;-71
2022/10/25 08:44:12;;;;;;;1.33;0.40;;;14.00;99.90;;;;;;5072817;28;20525;-70
2022/10/25 08:46:44;;;;;;;0.50;0.30;;;14.10;99.90;;;;;;5072230;28;20470;-71
2022/10/25 08:49:18;;;;;;;1.17;0.20;;;14.20;99.90;;;;;;5073877;28;21055;-71
2022/10/25 08:51:49;;;;;;;1.83;0.40;;;14.20;99.90;;;;;;5073584;28;20875;-72
2022/10/25 08:54:24;;;;;;;0.80;0.33;;;14.30;99.90;;;;;;5069807;28;20459;-71
2022/10/25 08:56:54;;;;;;;1.37;0.30;;;14.40;99.90;;;;;;5053143;28;20694;-71
2022/10/25 08:59:27;;;;;;;1.53;0.30;;;14.50;99.90;;;;;;5054715;28;20566;-71
2022/10/25 09:01:57;;;;;;;0.40;0.20;;;14.80;99.90;;;;;;5054519;28;20824;-71
2022/10/25 09:04:24;;;;;;;0.60;0.30;;;14.80;99.90;;;;;;5063027;28;20486;-72
2022/10/25 09:06:59;;;;;;;0.50;0.20;;;14.80;99.90;;;;;;5069907;28;21128;-72
2022/10/25 09:09:36;;;;;;;0.50;0.30;;;14.90;99.90;;;;;;5073849;28;20438;-71
2022/10/25 09:12:14;;;;;;;3.67;0.30;;;14.90;99.90;;;;;;5071810;28;20461;-71
2022/10/25 09:14:48;;;;;;;1.07;0.40;;;15.00;99.90;;;;;;5072696;28;20443;-71
2022/10/25 09:17:18;;;;;;;2.30;0.40;;;15.00;99.90;;;;;;5073293;28;20461;-70
2022/10/25 09:20:03;;;;;;;0.80;0.20;;;15.10;99.90;;;;;;5073777;28;20501;-70
2022/10/25 09:22:31;;;;;;;0.50;0.30;;;15.20;99.90;;;;;;5071802;28;20498;-72
2022/10/25 09:25:02;;;;;;;0.40;0.30;;;15.20;99.90;;;;;;5071086;28;21024;-70
2022/10/25 09:27:35;;;;;;;0.70;0.30;;;15.20;99.90;;;;;;5070312;28;20573;-73
2022/10/25 09:30:07;;;;;;;0.40;0.20;;;15.30;99.90;;;;;;5072260;28;20446;-71
2022/10/25 09:32:38;;;;;;;2.90;0.30;;;15.30;99.90;;;;;;5072313;28;20541;-72
2022/10/25 09:35:12;;;;;;;0.30;0.20;;;15.30;99.90;;;;;;5071828;28;20470;-71
2022/10/25 09:37:41;;;;;;;0.50;0.30;;;15.40;99.70;;;;;;5071133;28;20468;-72
2022/10/25 09:40:13;;;;;;;0.50;0.20;;;15.50;84.50;;;;;;5071369;28;20485;-72
2022/10/25 09:42:46;;;;;;;0.40;0.30;;;15.50;72.50;;;;;;5071184;28;20482;-72
2022/10/25 09:45:22;;;;;;;0.90;0.20;;;15.60;76.00;;;;;;5071254;28;20485;-72
2022/10/25 09:47:54;;;;;;;0.50;0.20;;;15.70;75.70;;;;;;5073738;28;20536;-72
2022/10/25 09:50:26;;;;;;;0.80;0.30;;;15.70;66.40;;;;;;5072844;28;20438;-72
2022/10/25 09:53:04;;;;;;;0.40;0.20;;;15.80;73.80;;;;;;5072529;28;20878;-72
2022/10/25 09:55:38;;;;;;;0.40;0.23;;;15.80;51.60;;;;;;5070426;28;20571;-72
2022/10/25 09:58:06;;;;;;;1.13;0.30;;;15.80;55.80;;;;;;5072282;28;20454;-72
2022/10/25 10:00:39;;;;;;;0.60;0.30;;;16.00;66.30;;;;;;5070556;28;21043;-72
2022/10/25 10:03:06;;;;;;;0.50;0.30;;;16.00;44.10;;;;;;5069425;28;20892;-72
2022/10/25 10:05:34;;;;;;;0.60;0.30;;;16.10;49.60;;;;;;5066409;28;20450;-72
2022/10/25 10:08:00;;;;;;;0.63;0.27;;;16.10;36.90;;;;;;5069473;28;20541;-72
2022/10/25 10:10:34;;;;;;;1.70;0.90;;;16.20;48.30;;;;;;5070740;28;20552;-72
2022/10/25 10:13:05;;;;;;;0.60;0.40;;;16.10;24.30;;;;;;5069867;28;20539;-72
2022/10/25 10:15:38;;;;;;;1.30;0.40;;;16.20;36.30;;;;;;5065310;28;20549;-72
2022/10/25 10:18:28;;;;;;;0.50;0.20;;;16.30;40.90;;;;;;5070082;28;20457;-71
2022/10/25 10:21:00;;;;;;;5.43;0.70;;;16.30;32.50;;;;;;5070360;28;20456;-71
2022/10/25 10:23:28;;;;;;;3.73;0.60;;;16.30;29.20;;;;;;5070565;28;20496;-72
2022/10/25 10:25:58;;;;;;;0.67;0.40;;;16.40;28.50;;;;;;5070365;28;20891;-71
2022/10/25 10:28:25;;;;;;;0.60;0.20;;;16.50;21.10;;;;;;5058734;28;21061;-72
2022/10/25 10:30:57;;;;;;;0.80;0.30;;;16.60;9.50;;;;;;5067205;28;20532;-72
2022/10/25 10:33:27;;;;;;;4.40;0.30;;;16.70;1.00;;;;;;5065835;28;20767;-72
2022/10/25 10:35:55;;;;;;;8.30;0.50;;;16.90;1.00;;;;;;5071669;28;20519;-72
2022/10/25 10:38:24;;;;;;;3.43;0.40;;;17.10;1.00;;;;;;5068478;28;20438;-73
2022/10/25 10:40:53;;;;;;;1.88;0.43;;;17.20;1.00;;;;;;5079894;28;20456;-71
2022/10/25 10:43:31;;;;;;;2.77;0.30;;;17.40;1.00;;;;;;5084177;28;20207;-72
2022/10/25 10:46:09;;;;;;;1.57;0.30;;;17.40;1.00;;;;;;5069706;28;20517;-72
2022/10/25 10:48:39;;;;;;;2.10;0.40;;;17.60;1.00;;;;;;5068057;28;20477;-71
2022/10/25 10:51:06;;;;;;;0.40;0.20;;;17.70;1.00;;;;;;5071959;28;20698;-71
2022/10/25 10:53:34;;;;;;;2.20;0.30;;;17.80;1.00;;;;;;5072243;28;20549;-72
2022/10/25 10:56:02;;;;;;;1.20;0.40;;;17.90;1.00;;;;;;5068992;28;20543;-71
2022/10/25 10:58:33;;;;;;;1.50;0.30;;;18.00;1.00;;;;;;5063689;28;20304;-73
2022/10/25 11:01:02;;;;;;;0.90;0.40;;;18.10;1.00;;;;;;5074799;28;21035;-72
2022/10/25 11:03:39;;;;;;;1.20;0.20;;;18.30;1.00;;;;;;5061229;28;20448;-72
2022/10/25 11:06:13;;;;;;;0.60;0.30;;;18.50;1.00;;;;;;5073888;28;20454;-71
2022/10/25 11:08:40;;;;;;;0.73;0.40;;;18.40;1.00;;;;;;5077424;28;20495;-72
2022/10/25 11:11:19;;;;;;;1.17;0.30;;;18.30;1.00;;;;;;5072782;28;20565;-72
2022/10/25 11:13:53;;;;;;;0.60;0.30;;;18.40;1.00;;;;;;5073676;28;20456;-72
2022/10/25 11:16:41;;;;;;;1.77;0.30;;;18.70;1.00;;;;;;5077540;28;20458;-72
2022/10/25 11:19:38;;;;;;;1.60;0.23;;;18.70;1.00;;;;;;5073200;28;20488;-72
2022/10/25 11:22:18;;;;;;;2.77;0.30;;;18.90;1.00;;;;;;5074966;28;20573;-72
2022/10/25 11:24:56;;;;;;;0.90;0.50;;;18.80;1.00;;;;;;5074734;28;21065;-72
2022/10/25 11:27:32;;;;;;;0.70;0.50;;;18.80;99.90;;;;;;5071753;28;20442;-72
2022/10/25 11:30:08;;;;;;;1.13;0.30;;;18.90;1.00;;;;;;5076074;28;20477;-72
2022/10/25 11:33:00;;;;;;;0.33;0.20;;;19.00;99.90;;;;;;5075368;28;20536;-72
2022/10/25 11:35:44;;;;;;;1.07;0.30;;;18.80;99.90;;;;;;5072917;28;20540;-71
2022/10/25 11:38:19;;;;;;;0.70;0.33;;;18.90;99.90;;;;;;5076386;28;20453;-71
2022/10/25 11:40:56;;;;;;;1.00;0.20;;;19.00;1.00;;;;;;5076069;28;20576;-72
2022/10/25 11:43:46;;;;;;;0.60;0.27;;;19.20;1.00;;;;;;5077147;28;20913;-72
2022/10/25 11:46:25;;;;;;;0.40;0.20;;;19.50;99.90;;;;;;5076603;28;20475;-72
2022/10/25 11:49:08;;;;;;;0.83;0.30;;;19.80;1.00;;;;;;5078096;28;20913;-73
2022/10/25 11:51:48;;;;;;;0.50;0.20;;;20.10;1.00;;;;;;5074474;28;20478;-72
2022/10/25 11:54:27;;;;;;;0.40;0.20;;;20.20;1.00;;;;;;5075309;28;20577;-73
2022/10/25 11:57:07;;;;;;;0.30;0.20;;;20.20;99.90;;;;;;5073854;28;20736;-73
2022/10/25 11:59:43;;;;;;;1.90;0.30;;;20.10;99.90;;;;;;5074585;28;20517;-72
2022/10/25 12:02:26;;;;;;;0.60;0.20;;;19.80;99.90;;;;;;5076202;28;21041;-72
2022/10/25 12:05:08;;;;;;;0.80;0.40;;;19.50;1.00;;;;;;5073689;28;20828;-72
2022/10/25 12:07:44;;;;;;;0.43;0.20;;;19.50;99.90;;;;;;5073244;28;20451;-71
2022/10/25 12:10:21;;;;;;;0.47;0.20;;;19.50;99.90;;;;;;5074634;28;20478;-72
2022/10/25 12:12:51;;;;;;;0.70;0.20;;;19.50;99.90;;;;;;5074412;28;20454;-71
2022/10/25 12:15:22;;;;;;;1.03;0.30;;;19.70;1.00;;;;;;5076284;28;20565;-73
2022/10/25 12:17:51;;;;;;;0.50;0.30;;;19.80;1.00;;;;;;5073456;28;20485;-73
2022/10/25 12:20:23;;;;;;;0.70;0.20;;;19.80;99.90;;;;;;5072382;28;20584;-72
2022/10/25 12:22:55;;;;;;;0.60;0.27;;;19.70;99.90;;;;;;5074916;28;20553;-72
2022/10/25 12:25:26;;;;;;;1.90;0.20;;;19.90;1.00;;;;;;5073963;28;20454;-72
2022/10/25 12:28:05;;;;;;;1.70;0.30;;;19.90;1.00;;;;;;5073988;28;20530;-72
2022/10/25 12:30:34;;;;;;;2.50;0.30;;;20.00;99.90;;;;;;5071252;28;20474;-71
2022/10/25 12:33:11;;;;;;;0.57;0.30;;;19.90;1.00;;;;;;5065309;28;20543;-72
2022/10/25 12:35:48;;;;;;;0.83;0.20;;;20.00;1.00;;;;;;5055229;28;20550;-71
2022/10/25 12:38:23;;;;;;;0.70;0.30;;;20.10;1.00;;;;;;5056813;28;20467;-71
2022/10/25 12:40:54;;;;;;;0.47;0.20;;;19.70;99.90;;;;;;5060973;28;20539;-73
2022/10/25 12:43:30;;;;;;;0.40;0.20;;;19.70;1.00;;;;;;5076544;28;20896;-72
2022/10/25 12:46:24;;;;;;;0.50;0.30;;;19.90;1.00;;;;;;5071207;28;20462;-72
2022/10/25 12:49:13;;;;;;;0.83;0.30;;;20.00;1.00;;;;;;5068883;28;20541;-72
2022/10/25 12:52:00;;;;;;;0.60;0.30;;;20.10;1.00;;;;;;5075491;28;20746;-72
2022/10/25 12:54:49;;;;;;;0.93;0.20;;;20.00;99.90;;;;;;5072162;28;20527;-72
2022/10/25 12:57:24;;;;;;;0.93;0.30;;;19.90;99.90;;;;;;5074397;28;20517;-72
2022/10/25 13:00:04;;;;;;;0.40;0.20;;;19.80;58.90;;;;;;5072733;28;20882;-71
2022/10/25 13:02:57;;;;;;;0.70;0.20;;;19.60;1.00;;;;;;5073014;28;21076;-72
2022/10/25 13:05:48;;;;;;;0.47;0.20;;;19.60;1.00;;;;;;5072929;28;20497;-71
2022/10/25 13:08:18;;;;;;;0.93;0.20;;;19.60;99.90;;;;;;5070406;28;20451;-71
2022/10/25 13:10:49;;;;;;;0.50;0.20;;;19.40;1.00;;;;;;5071383;28;20585;-72
2022/10/25 13:13:20;;;;;;;1.00;0.20;;;19.40;99.90;;;;;;5055764;28;20487;-71
2022/10/25 13:15:50;;;;;;;0.63;0.30;;;19.40;1.00;;;;;;5052163;28;20490;-71
2022/10/25 13:18:37;;;;;;;2.73;0.30;;;19.50;99.90;;;;;;5053907;28;20447;-72
2022/10/25 13:21:06;;;;;;;0.70;0.20;;;19.40;99.90;;;;;;5052486;28;20514;-72
2022/10/25 13:24:01;;;;;;;1.63;0.20;;;19.40;99.90;;;;;;5053084;28;20447;-72
2022/10/25 13:27:17;;;;;;;0.50;0.20;;;19.30;46.20;;;;;;5048873;28;20559;-72
2022/10/25 13:30:02;;;;;;;0.80;0.30;;;19.30;99.90;;;;;;5051326;28;20506;-71
2022/10/25 13:32:31;;;;;;;0.90;0.30;;;19.30;99.90;;;;;;5052941;28;20597;-72
2022/10/25 13:34:58;;;;;;;0.40;0.20;;;19.30;99.90;;;;;;5067234;28;20475;-71
2022/10/25 13:37:43;;;;;;;1.23;0.23;;;19.30;99.90;;;;;;5073301;28;20444;-72
2022/10/25 13:40:27;;;;;;;0.67;0.40;;;19.20;99.90;;;;;;5072295;28;20528;-72
2022/10/25 13:43:04;;;;;;;0.60;0.30;;;19.00;1.00;;;;;;5074908;28;20452;-72
2022/10/25 13:45:39;;;;;;;0.40;0.20;;;19.00;1.00;;;;;;5071875;28;20505;-72
2022/10/25 13:48:27;;;;;;;1.03;0.20;;;19.00;1.00;;;;;;5074174;28;20438;-71